sensor_id;sensor_type;location;lat;lon;timestamp;temperature;humidity
17697;DHT22;8967;47.984;7.842;2023-09-19T00:01:52;18.80;99.90
17697;DHT22;8967;47.984;7.842;2023-09-19T00:04:22;18.80;99.90
17697;DHT22;8967;47.984;7.842;2023-09-19T00:06:54;18.80;99.90
17697;DHT22;8967;47.984;7.842;2023-09-19T00:09:21;18.80;99.90
17697;DHT22;8967;47.984;7.842;2023-09-19T00:11:51;18.80;99.90
17697;DHT22;8967;47.984;7.842;2023-09-19T00:14:18;18.80;99.90
17697;DHT22;8967;47.984;7.842;2023-09-19T00:16:48;18.80;99.90
17697;DHT22;8967;47.984;7.842;2023-09-19T00:19:19;18.80;99.90
17697;DHT22;8967;47.984;7.842;2023-09-19T00:21:46;18.80;99.90
17697;DHT22;8967;47.984;7.842;2023-09-19T00:24:13;18.80;99.90
17697;DHT22;8967;47.984;7.842;2023-09-19T00:26:40;18.70;99.90
17697;DHT22;8967;47.984;7.842;2023-09-19T00:29:07;18.70;99.90
17697;DHT22;8967;47.984;7.842;2023-09-19T00:31:34;18.70;99.90
17697;DHT22;8967;47.984;7.842;2023-09-19T00:34:03;18.70;99.90
17697;DHT22;8967;47.984;7.842;2023-09-19T00:36:33;18.70;99.90
17697;DHT22;8967;47.984;7.842;2023-09-19T00:39:00;18.70;99.90
17697;DHT22;8967;47.984;7.842;2023-09-19T00:41:28;18.70;99.90
17697;DHT22;8967;47.984;7.842;2023-09-19T00:43:56;18.70;99.90
17697;DHT22;8967;47.984;7.842;2023-09-19T00:46:23;18.60;99.90
17697;DHT22;8967;47.984;7.842;2023-09-19T00:48:51;18.60;99.90
17697;DHT22;8967;47.984;7.842;2023-09-19T00:51:19;18.60;99.90
17697;DHT22;8967;47.984;7.842;2023-09-19T00:53:49;18.60;99.90
17697;DHT22;8967;47.984;7.842;2023-09-19T00:56:16;18.60;99.90
17697;DHT22;8967;47.984;7.842;2023-09-19T00:58:44;18.60;99.90
17697;DHT22;8967;47.984;7.842;2023-09-19T01:01:14;18.50;99.90
17697;DHT22;8967;47.984;7.842;2023-09-19T01:03:41;18.50;99.90
17697;DHT22;8967;47.984;7.842;2023-09-19T01:06:08;18.50;99.90
17697;DHT22;8967;47.984;7.842;2023-09-19T01:08:38;18.50;99.90
17697;DHT22;8967;47.984;7.842;2023-09-19T01:11:12;18.50;99.90
17697;DHT22;8967;47.984;7.842;2023-09-19T01:13:51;18.40;99.90
17697;DHT22;8967;47.984;7.842;2023-09-19T01:16:32;18.40;99.90
17697;DHT22;8967;47.984;7.842;2023-09-19T01:19:21;18.40;99.90
17697;DHT22;8967;47.984;7.842;2023-09-19T01:21:59;18.40;99.90
17697;DHT22;8967;47.984;7.842;2023-09-19T01:27:34;18.40;99.90
17697;DHT22;8967;47.984;7.842;2023-09-19T01:30:14;18.40;99.90
17697;DHT22;8967;47.984;7.842;2023-09-19T01:32:41;18.40;99.90
17697;DHT22;8967;47.984;7.842;2023-09-19T01:35:12;18.40;99.90
17697;DHT22;8967;47.984;7.842;2023-09-19T01:37:41;18.40;99.90
17697;DHT22;8967;47.984;7.842;2023-09-19T01:40:11;18.40;99.90
17697;DHT22;8967;47.984;7.842;2023-09-19T01:42:49;18.40;99.90
17697;DHT22;8967;47.984;7.842;2023-09-19T01:45:27;18.40;99.90
17697;DHT22;8967;47.984;7.842;2023-09-19T01:48:03;18.40;99.90
17697;DHT22;8967;47.984;7.842;2023-09-19T01:50:37;18.40;99.90
17697;DHT22;8967;47.984;7.842;2023-09-19T01:53:15;18.40;99.90
17697;DHT22;8967;47.984;7.842;2023-09-19T01:55:47;18.40;99.90
17697;DHT22;8967;47.984;7.842;2023-09-19T01:58:20;18.40;99.90
17697;DHT22;8967;47.984;7.842;2023-09-19T02:00:50;18.40;99.90
17697;DHT22;8967;47.984;7.842;2023-09-19T02:03:20;18.50;99.90
17697;DHT22;8967;47.984;7.842;2023-09-19T02:05:49;18.50;99.90
17697;DHT22;8967;47.984;7.842;2023-09-19T02:08:20;18.50;99.90
17697;DHT22;8967;47.984;7.842;2023-09-19T02:10:52;18.50;99.90
17697;DHT22;8967;47.984;7.842;2023-09-19T02:13:20;18.50;99.90
17697;DHT22;8967;47.984;7.842;2023-09-19T02:15:49;18.50;99.90
17697;DHT22;8967;47.984;7.842;2023-09-19T02:18:16;18.50;99.90
17697;DHT22;8967;47.984;7.842;2023-09-19T02:20:47;18.50;99.90
17697;DHT22;8967;47.984;7.842;2023-09-19T02:23:14;18.50;99.90
17697;DHT22;8967;47.984;7.842;2023-09-19T02:25:42;18.50;99.90
17697;DHT22;8967;47.984;7.842;2023-09-19T02:28:12;18.50;99.90
17697;DHT22;8967;47.984;7.842;2023-09-19T02:30:40;18.50;99.90
17697;DHT22;8967;47.984;7.842;2023-09-19T02:33:11;18.50;99.90
17697;DHT22;8967;47.984;7.842;2023-09-19T02:35:38;18.50;99.90
17697;DHT22;8967;47.984;7.842;2023-09-19T02:38:07;18.50;99.90
17697;DHT22;8967;47.984;7.842;2023-09-19T02:40:37;18.50;99.90
17697;DHT22;8967;47.984;7.842;2023-09-19T02:43:07;18.50;99.90
17697;DHT22;8967;47.984;7.842;2023-09-19T02:45:35;18.50;99.90
17697;DHT22;8967;47.984;7.842;2023-09-19T02:48:02;18.50;99.90
17697;DHT22;8967;47.984;7.842;2023-09-19T02:50:31;18.50;99.90
17697;DHT22;8967;47.984;7.842;2023-09-19T02:52:59;18.40;99.90
17697;DHT22;8967;47.984;7.842;2023-09-19T02:55:28;18.50;99.90
17697;DHT22;8967;47.984;7.842;2023-09-19T02:57:57;18.50;99.90
17697;DHT22;8967;47.984;7.842;2023-09-19T03:00:26;18.40;99.90
17697;DHT22;8967;47.984;7.842;2023-09-19T03:02:54;18.40;99.90
17697;DHT22;8967;47.984;7.842;2023-09-19T03:05:24;18.40;99.90
17697;DHT22;8967;47.984;7.842;2023-09-19T03:07:54;18.30;99.90
17697;DHT22;8967;47.984;7.842;2023-09-19T03:10:21;18.40;99.90
17697;DHT22;8967;47.984;7.842;2023-09-19T03:12:51;18.40;99.90
17697;DHT22;8967;47.984;7.842;2023-09-19T03:15:20;18.40;99.90
17697;DHT22;8967;47.984;7.842;2023-09-19T03:17:50;18.40;99.90
17697;DHT22;8967;47.984;7.842;2023-09-19T03:20:21;18.40;99.90
17697;DHT22;8967;47.984;7.842;2023-09-19T03:22:49;18.30;99.90
17697;DHT22;8967;47.984;7.842;2023-09-19T03:25:18;18.30;99.90
17697;DHT22;8967;47.984;7.842;2023-09-19T03:27:49;18.30;99.90
17697;DHT22;8967;47.984;7.842;2023-09-19T03:30:19;18.30;99.90
17697;DHT22;8967;47.984;7.842;2023-09-19T03:32:47;18.30;99.90
17697;DHT22;8967;47.984;7.842;2023-09-19T03:35:16;18.30;99.90
17697;DHT22;8967;47.984;7.842;2023-09-19T03:37:45;18.30;99.90
17697;DHT22;8967;47.984;7.842;2023-09-19T03:40:13;18.20;99.90
17697;DHT22;8967;47.984;7.842;2023-09-19T03:42:45;18.20;99.90
17697;DHT22;8967;47.984;7.842;2023-09-19T03:45:14;18.20;99.90
17697;DHT22;8967;47.984;7.842;2023-09-19T03:47:54;18.20;99.90
17697;DHT22;8967;47.984;7.842;2023-09-19T03:50:23;18.20;99.90
17697;DHT22;8967;47.984;7.842;2023-09-19T03:52:50;18.20;99.90
17697;DHT22;8967;47.984;7.842;2023-09-19T03:55:27;18.20;99.90
17697;DHT22;8967;47.984;7.842;2023-09-19T03:57:57;18.20;99.90
17697;DHT22;8967;47.984;7.842;2023-09-19T04:00:24;18.10;99.90
17697;DHT22;8967;47.984;7.842;2023-09-19T04:02:53;18.10;99.90
17697;DHT22;8967;47.984;7.842;2023-09-19T04:05:22;18.10;99.90
17697;DHT22;8967;47.984;7.842;2023-09-19T04:07:49;18.10;99.90
17697;DHT22;8967;47.984;7.842;2023-09-19T04:10:17;18.00;99.90
17697;DHT22;8967;47.984;7.842;2023-09-19T04:12:51;18.00;99.90
17697;DHT22;8967;47.984;7.842;2023-09-19T04:15:20;18.00;99.90
17697;DHT22;8967;47.984;7.842;2023-09-19T04:17:51;18.00;99.90
17697;DHT22;8967;47.984;7.842;2023-09-19T04:20:18;18.00;99.90
17697;DHT22;8967;47.984;7.842;2023-09-19T04:22:46;18.00;99.90
17697;DHT22;8967;47.984;7.842;2023-09-19T04:25:13;18.10;99.90
17697;DHT22;8967;47.984;7.842;2023-09-19T04:27:41;18.10;99.90
17697;DHT22;8967;47.984;7.842;2023-09-19T04:30:08;18.10;99.90
17697;DHT22;8967;47.984;7.842;2023-09-19T04:32:39;18.10;99.90
17697;DHT22;8967;47.984;7.842;2023-09-19T04:35:09;18.10;99.90
17697;DHT22;8967;47.984;7.842;2023-09-19T04:37:37;18.10;99.90
17697;DHT22;8967;47.984;7.842;2023-09-19T04:40:07;18.10;99.90
17697;DHT22;8967;47.984;7.842;2023-09-19T04:42:40;18.10;99.90
17697;DHT22;8967;47.984;7.842;2023-09-19T04:45:08;18.10;99.90
17697;DHT22;8967;47.984;7.842;2023-09-19T04:47:40;18.20;99.90
17697;DHT22;8967;47.984;7.842;2023-09-19T04:50:09;18.20;99.90
17697;DHT22;8967;47.984;7.842;2023-09-19T04:52:42;18.20;99.90
17697;DHT22;8967;47.984;7.842;2023-09-19T04:55:10;18.10;99.90
17697;DHT22;8967;47.984;7.842;2023-09-19T04:57:39;18.10;99.90
17697;DHT22;8967;47.984;7.842;2023-09-19T05:00:07;18.10;99.90
17697;DHT22;8967;47.984;7.842;2023-09-19T05:02:40;18.10;99.90
17697;DHT22;8967;47.984;7.842;2023-09-19T05:05:12;18.10;99.90
17697;DHT22;8967;47.984;7.842;2023-09-19T05:07:41;18.10;99.90
17697;DHT22;8967;47.984;7.842;2023-09-19T05:10:09;18.10;99.90
17697;DHT22;8967;47.984;7.842;2023-09-19T05:12:37;18.10;99.90
17697;DHT22;8967;47.984;7.842;2023-09-19T05:15:06;18.10;99.90
17697;DHT22;8967;47.984;7.842;2023-09-19T05:17:33;18.10;99.90
17697;DHT22;8967;47.984;7.842;2023-09-19T05:20:02;18.10;99.90
17697;DHT22;8967;47.984;7.842;2023-09-19T05:22:43;18.10;99.90
17697;DHT22;8967;47.984;7.842;2023-09-19T05:25:12;18.10;99.90
17697;DHT22;8967;47.984;7.842;2023-09-19T05:27:42;18.10;99.90
17697;DHT22;8967;47.984;7.842;2023-09-19T05:30:10;18.10;99.90
17697;DHT22;8967;47.984;7.842;2023-09-19T05:32:40;18.10;99.90
17697;DHT22;8967;47.984;7.842;2023-09-19T05:35:08;18.10;99.90
17697;DHT22;8967;47.984;7.842;2023-09-19T05:37:35;18.10;99.90
17697;DHT22;8967;47.984;7.842;2023-09-19T05:40:04;18.10;99.90
17697;DHT22;8967;47.984;7.842;2023-09-19T05:42:36;18.20;99.90
17697;DHT22;8967;47.984;7.842;2023-09-19T05:45:04;18.20;99.90
17697;DHT22;8967;47.984;7.842;2023-09-19T05:47:32;18.20;99.90
17697;DHT22;8967;47.984;7.842;2023-09-19T05:50:00;18.20;99.90
17697;DHT22;8967;47.984;7.842;2023-09-19T05:52:28;18.20;99.90
17697;DHT22;8967;47.984;7.842;2023-09-19T05:54:55;18.20;99.90
17697;DHT22;8967;47.984;7.842;2023-09-19T05:57:23;18.20;99.90
17697;DHT22;8967;47.984;7.842;2023-09-19T05:59:50;18.20;99.90
17697;DHT22;8967;47.984;7.842;2023-09-19T06:02:17;18.20;99.90
17697;DHT22;8967;47.984;7.842;2023-09-19T06:04:45;18.20;99.90
17697;DHT22;8967;47.984;7.842;2023-09-19T06:07:12;18.30;99.90
17697;DHT22;8967;47.984;7.842;2023-09-19T06:09:43;18.20;99.90
17697;DHT22;8967;47.984;7.842;2023-09-19T06:12:12;18.30;99.90
17697;DHT22;8967;47.984;7.842;2023-09-19T06:14:41;18.30;99.90
17697;DHT22;8967;47.984;7.842;2023-09-19T06:17:09;18.30;99.90
17697;DHT22;8967;47.984;7.842;2023-09-19T06:20:04;18.30;99.90
17697;DHT22;8967;47.984;7.842;2023-09-19T06:22:36;18.30;99.90
17697;DHT22;8967;47.984;7.842;2023-09-19T06:25:05;18.30;99.90
17697;DHT22;8967;47.984;7.842;2023-09-19T06:27:33;18.30;99.90
17697;DHT22;8967;47.984;7.842;2023-09-19T06:30:02;18.40;99.90
17697;DHT22;8967;47.984;7.842;2023-09-19T06:32:30;18.30;99.90
17697;DHT22;8967;47.984;7.842;2023-09-19T06:34:57;18.40;99.90
17697;DHT22;8967;47.984;7.842;2023-09-19T06:37:27;18.40;99.90
17697;DHT22;8967;47.984;7.842;2023-09-19T06:39:57;18.40;99.90
17697;DHT22;8967;47.984;7.842;2023-09-19T06:42:27;18.40;99.90
17697;DHT22;8967;47.984;7.842;2023-09-19T06:44:55;18.40;99.90
17697;DHT22;8967;47.984;7.842;2023-09-19T06:47:22;18.40;99.90
17697;DHT22;8967;47.984;7.842;2023-09-19T06:49:51;18.40;99.90
17697;DHT22;8967;47.984;7.842;2023-09-19T06:52:19;18.40;99.90
17697;DHT22;8967;47.984;7.842;2023-09-19T06:54:47;18.40;99.90
17697;DHT22;8967;47.984;7.842;2023-09-19T06:57:16;18.50;99.90
17697;DHT22;8967;47.984;7.842;2023-09-19T06:59:46;18.50;99.90
17697;DHT22;8967;47.984;7.842;2023-09-19T07:02:13;18.50;99.90
17697;DHT22;8967;47.984;7.842;2023-09-19T07:04:45;18.50;99.90
17697;DHT22;8967;47.984;7.842;2023-09-19T07:07:16;18.50;99.90
17697;DHT22;8967;47.984;7.842;2023-09-19T07:09:43;18.50;99.90
17697;DHT22;8967;47.984;7.842;2023-09-19T07:12:10;18.50;99.90
17697;DHT22;8967;47.984;7.842;2023-09-19T07:14:37;18.50;99.90
17697;DHT22;8967;47.984;7.842;2023-09-19T07:17:06;18.50;99.90
17697;DHT22;8967;47.984;7.842;2023-09-19T07:19:36;18.50;99.90
17697;DHT22;8967;47.984;7.842;2023-09-19T07:22:03;18.50;99.90
17697;DHT22;8967;47.984;7.842;2023-09-19T07:24:30;18.50;99.90
17697;DHT22;8967;47.984;7.842;2023-09-19T07:26:59;18.50;99.90
17697;DHT22;8967;47.984;7.842;2023-09-19T07:29:29;18.60;99.90
17697;DHT22;8967;47.984;7.842;2023-09-19T07:31:56;18.60;99.90
17697;DHT22;8967;47.984;7.842;2023-09-19T07:34:26;18.60;99.90
17697;DHT22;8967;47.984;7.842;2023-09-19T07:36:53;18.60;99.90
17697;DHT22;8967;47.984;7.842;2023-09-19T07:39:21;18.60;99.90
17697;DHT22;8967;47.984;7.842;2023-09-19T07:41:48;18.70;99.90
17697;DHT22;8967;47.984;7.842;2023-09-19T07:44:15;18.70;99.90
17697;DHT22;8967;47.984;7.842;2023-09-19T07:46:43;18.70;99.90
17697;DHT22;8967;47.984;7.842;2023-09-19T07:49:13;18.70;99.90
17697;DHT22;8967;47.984;7.842;2023-09-19T07:51:54;18.70;99.90
17697;DHT22;8967;47.984;7.842;2023-09-19T07:54:22;18.70;99.90
17697;DHT22;8967;47.984;7.842;2023-09-19T07:56:52;18.70;99.90
17697;DHT22;8967;47.984;7.842;2023-09-19T07:59:19;18.70;99.90
17697;DHT22;8967;47.984;7.842;2023-09-19T08:01:46;18.70;99.90
17697;DHT22;8967;47.984;7.842;2023-09-19T08:04:14;18.70;99.90
17697;DHT22;8967;47.984;7.842;2023-09-19T08:06:41;18.70;99.90
17697;DHT22;8967;47.984;7.842;2023-09-19T08:09:11;18.70;99.90
17697;DHT22;8967;47.984;7.842;2023-09-19T08:11:46;18.70;99.90
17697;DHT22;8967;47.984;7.842;2023-09-19T08:14:13;18.70;99.90
17697;DHT22;8967;47.984;7.842;2023-09-19T08:16:41;18.70;99.90
17697;DHT22;8967;47.984;7.842;2023-09-19T08:19:12;18.70;99.90
17697;DHT22;8967;47.984;7.842;2023-09-19T08:21:43;18.70;99.90
17697;DHT22;8967;47.984;7.842;2023-09-19T08:24:16;18.70;99.90
17697;DHT22;8967;47.984;7.842;2023-09-19T08:26:46;18.70;99.90
17697;DHT22;8967;47.984;7.842;2023-09-19T08:29:15;18.70;99.90
17697;DHT22;8967;47.984;7.842;2023-09-19T08:31:43;18.70;99.90
17697;DHT22;8967;47.984;7.842;2023-09-19T08:34:10;18.80;99.90
17697;DHT22;8967;47.984;7.842;2023-09-19T08:36:40;18.80;99.90
17697;DHT22;8967;47.984;7.842;2023-09-19T08:39:09;18.80;99.90
17697;DHT22;8967;47.984;7.842;2023-09-19T08:41:40;18.90;99.90
17697;DHT22;8967;47.984;7.842;2023-09-19T08:44:10;18.90;99.90
17697;DHT22;8967;47.984;7.842;2023-09-19T08:46:41;18.90;99.90
17697;DHT22;8967;47.984;7.842;2023-09-19T08:49:14;18.90;99.90
17697;DHT22;8967;47.984;7.842;2023-09-19T08:51:53;19.00;99.90
17697;DHT22;8967;47.984;7.842;2023-09-19T08:54:25;19.10;99.90
17697;DHT22;8967;47.984;7.842;2023-09-19T08:56:56;19.10;99.90
17697;DHT22;8967;47.984;7.842;2023-09-19T08:59:29;19.10;99.90
17697;DHT22;8967;47.984;7.842;2023-09-19T09:01:57;19.20;99.90
17697;DHT22;8967;47.984;7.842;2023-09-19T09:04:26;19.20;99.90
17697;DHT22;8967;47.984;7.842;2023-09-19T09:06:54;19.30;99.90
17697;DHT22;8967;47.984;7.842;2023-09-19T09:09:21;19.30;99.90
17697;DHT22;8967;47.984;7.842;2023-09-19T09:11:49;19.40;99.90
17697;DHT22;8967;47.984;7.842;2023-09-19T09:14:25;19.50;99.90
17697;DHT22;8967;47.984;7.842;2023-09-19T09:16:55;19.60;99.90
17697;DHT22;8967;47.984;7.842;2023-09-19T09:19:27;19.60;99.90
17697;DHT22;8967;47.984;7.842;2023-09-19T09:21:54;19.70;99.90
17697;DHT22;8967;47.984;7.842;2023-09-19T09:24:27;19.80;99.90
17697;DHT22;8967;47.984;7.842;2023-09-19T09:26:58;19.80;99.90
17697;DHT22;8967;47.984;7.842;2023-09-19T09:29:44;19.90;99.90
17697;DHT22;8967;47.984;7.842;2023-09-19T09:32:22;19.90;99.90
17697;DHT22;8967;47.984;7.842;2023-09-19T09:34:52;19.90;99.90
17697;DHT22;8967;47.984;7.842;2023-09-19T09:37:20;20.00;99.90
17697;DHT22;8967;47.984;7.842;2023-09-19T09:39:52;20.00;99.90
17697;DHT22;8967;47.984;7.842;2023-09-19T09:42:33;20.00;99.90
17697;DHT22;8967;47.984;7.842;2023-09-19T09:45:23;20.00;99.90
17697;DHT22;8967;47.984;7.842;2023-09-19T09:48:05;20.00;99.90
17697;DHT22;8967;47.984;7.842;2023-09-19T09:50:47;20.10;99.90
17697;DHT22;8967;47.984;7.842;2023-09-19T09:53:22;20.10;99.90
17697;DHT22;8967;47.984;7.842;2023-09-19T09:56:03;20.20;99.80
17697;DHT22;8967;47.984;7.842;2023-09-19T09:58:36;20.20;99.60
17697;DHT22;8967;47.984;7.842;2023-09-19T10:01:05;20.20;99.30
17697;DHT22;8967;47.984;7.842;2023-09-19T10:03:42;20.20;99.20
17697;DHT22;8967;47.984;7.842;2023-09-19T10:06:11;20.20;99.00
17697;DHT22;8967;47.984;7.842;2023-09-19T10:08:59;20.20;98.90
17697;DHT22;8967;47.984;7.842;2023-09-19T10:11:41;20.20;98.90
17697;DHT22;8967;47.984;7.842;2023-09-19T10:14:11;20.20;98.90
17697;DHT22;8967;47.984;7.842;2023-09-19T10:16:46;20.20;98.50
17697;DHT22;8967;47.984;7.842;2023-09-19T10:19:21;20.20;98.30
17697;DHT22;8967;47.984;7.842;2023-09-19T10:21:50;20.20;98.40
17697;DHT22;8967;47.984;7.842;2023-09-19T10:24:23;20.20;98.40
17697;DHT22;8967;47.984;7.842;2023-09-19T10:26:55;20.20;98.80
17697;DHT22;8967;47.984;7.842;2023-09-19T10:29:24;20.30;98.40
17697;DHT22;8967;47.984;7.842;2023-09-19T10:31:58;20.30;98.40
17697;DHT22;8967;47.984;7.842;2023-09-19T10:34:26;20.40;98.50
17697;DHT22;8967;47.984;7.842;2023-09-19T10:36:56;20.50;98.40
17697;DHT22;8967;47.984;7.842;2023-09-19T10:39:23;20.50;98.20
17697;DHT22;8967;47.984;7.842;2023-09-19T10:42:02;20.60;98.30
17697;DHT22;8967;47.984;7.842;2023-09-19T10:44:32;20.70;98.40
17697;DHT22;8967;47.984;7.842;2023-09-19T10:47:02;20.80;98.30
17697;DHT22;8967;47.984;7.842;2023-09-19T10:49:32;20.90;98.10
17697;DHT22;8967;47.984;7.842;2023-09-19T10:52:02;20.90;97.80
17697;DHT22;8967;47.984;7.842;2023-09-19T10:54:32;20.90;97.70
17697;DHT22;8967;47.984;7.842;2023-09-19T10:57:07;21.00;97.90
17697;DHT22;8967;47.984;7.842;2023-09-19T10:59:36;21.00;97.70
17697;DHT22;8967;47.984;7.842;2023-09-19T11:02:17;20.90;97.60
17697;DHT22;8967;47.984;7.842;2023-09-19T11:04:48;20.90;97.10
17697;DHT22;8967;47.984;7.842;2023-09-19T11:07:15;20.90;97.20
17697;DHT22;8967;47.984;7.842;2023-09-19T11:09:43;20.90;97.20
17697;DHT22;8967;47.984;7.842;2023-09-19T11:18:54;21.00;97.40
17697;DHT22;8967;47.984;7.842;2023-09-19T11:21:52;21.00;97.40
17697;DHT22;8967;47.984;7.842;2023-09-19T11:24:29;21.00;96.70
17697;DHT22;8967;47.984;7.842;2023-09-19T11:27:13;21.00;96.60
17697;DHT22;8967;47.984;7.842;2023-09-19T11:29:44;21.10;96.80
17697;DHT22;8967;47.984;7.842;2023-09-19T11:32:12;21.10;96.90
17697;DHT22;8967;47.984;7.842;2023-09-19T11:34:47;21.10;96.60
17697;DHT22;8967;47.984;7.842;2023-09-19T11:40:37;21.10;95.60
17697;DHT22;8967;47.984;7.842;2023-09-19T11:43:33;21.20;95.20
17697;DHT22;8967;47.984;7.842;2023-09-19T11:46:09;21.20;95.00
17697;DHT22;8967;47.984;7.842;2023-09-19T11:48:39;21.20;94.80
17697;DHT22;8967;47.984;7.842;2023-09-19T11:51:17;21.30;94.90
17697;DHT22;8967;47.984;7.842;2023-09-19T11:53:50;21.40;94.20
17697;DHT22;8967;47.984;7.842;2023-09-19T11:56:21;21.40;94.60
17697;DHT22;8967;47.984;7.842;2023-09-19T11:58:50;21.50;94.30
17697;DHT22;8967;47.984;7.842;2023-09-19T12:01:23;21.50;94.10
17697;DHT22;8967;47.984;7.842;2023-09-19T12:03:56;21.60;93.60
17697;DHT22;8967;47.984;7.842;2023-09-19T12:06:26;21.60;93.90
17697;DHT22;8967;47.984;7.842;2023-09-19T12:08:55;21.60;93.50
17697;DHT22;8967;47.984;7.842;2023-09-19T12:11:23;21.70;93.40
17697;DHT22;8967;47.984;7.842;2023-09-19T12:13:54;21.70;93.20
17697;DHT22;8967;47.984;7.842;2023-09-19T12:16:24;21.70;93.10
17697;DHT22;8967;47.984;7.842;2023-09-19T12:18:52;21.70;92.60
17697;DHT22;8967;47.984;7.842;2023-09-19T12:21:28;21.60;92.40
17697;DHT22;8967;47.984;7.842;2023-09-19T12:24:09;21.60;92.20
17697;DHT22;8967;47.984;7.842;2023-09-19T12:26:40;21.60;92.20
17697;DHT22;8967;47.984;7.842;2023-09-19T12:29:13;21.70;92.10
17697;DHT22;8967;47.984;7.842;2023-09-19T12:31:53;21.60;91.70
17697;DHT22;8967;47.984;7.842;2023-09-19T12:34:27;21.60;91.60
17697;DHT22;8967;47.984;7.842;2023-09-19T12:37:11;21.60;91.70
17697;DHT22;8967;47.984;7.842;2023-09-19T12:39:43;21.60;91.00
17697;DHT22;8967;47.984;7.842;2023-09-19T12:42:18;21.60;91.00
17697;DHT22;8967;47.984;7.842;2023-09-19T12:44:49;21.60;90.50
17697;DHT22;8967;47.984;7.842;2023-09-19T12:47:21;21.60;90.20
17697;DHT22;8967;47.984;7.842;2023-09-19T12:50:09;21.60;90.00
17697;DHT22;8967;47.984;7.842;2023-09-19T12:52:45;21.60;89.00
17697;DHT22;8967;47.984;7.842;2023-09-19T12:55:24;21.60;89.10
17697;DHT22;8967;47.984;7.842;2023-09-19T12:58:07;21.60;89.70
17697;DHT22;8967;47.984;7.842;2023-09-19T13:00:36;21.60;90.00
17697;DHT22;8967;47.984;7.842;2023-09-19T13:03:14;21.60;90.20
17697;DHT22;8967;47.984;7.842;2023-09-19T13:05:51;21.60;90.30
17697;DHT22;8967;47.984;7.842;2023-09-19T13:08:26;21.60;90.40
17697;DHT22;8967;47.984;7.842;2023-09-19T13:11:09;21.60;90.20
17697;DHT22;8967;47.984;7.842;2023-09-19T13:13:43;21.60;90.00
17697;DHT22;8967;47.984;7.842;2023-09-19T13:16:12;21.60;90.20
17697;DHT22;8967;47.984;7.842;2023-09-19T13:18:46;21.60;90.40
17697;DHT22;8967;47.984;7.842;2023-09-19T13:21:17;21.70;90.20
17697;DHT22;8967;47.984;7.842;2023-09-19T13:23:53;21.70;90.30
17697;DHT22;8967;47.984;7.842;2023-09-19T13:26:27;21.70;90.10
17697;DHT22;8967;47.984;7.842;2023-09-19T13:28:56;21.70;90.20
17697;DHT22;8967;47.984;7.842;2023-09-19T13:31:23;21.80;89.70
17697;DHT22;8967;47.984;7.842;2023-09-19T13:33:51;21.80;89.60
17697;DHT22;8967;47.984;7.842;2023-09-19T13:36:18;21.80;89.40
17697;DHT22;8967;47.984;7.842;2023-09-19T13:38:45;21.80;89.60
17697;DHT22;8967;47.984;7.842;2023-09-19T13:41:16;21.90;89.80
17697;DHT22;8967;47.984;7.842;2023-09-19T13:43:43;21.90;89.30
17697;DHT22;8967;47.984;7.842;2023-09-19T13:46:14;21.90;88.70
17697;DHT22;8967;47.984;7.842;2023-09-19T13:48:44;21.90;88.40
17697;DHT22;8967;47.984;7.842;2023-09-19T13:51:11;21.90;87.80
17697;DHT22;8967;47.984;7.842;2023-09-19T13:53:41;21.90;86.60
17697;DHT22;8967;47.984;7.842;2023-09-19T13:56:08;21.90;86.20
17697;DHT22;8967;47.984;7.842;2023-09-19T13:58:36;22.00;85.70
17697;DHT22;8967;47.984;7.842;2023-09-19T14:01:03;22.00;85.90
17697;DHT22;8967;47.984;7.842;2023-09-19T14:03:30;22.00;85.70
17697;DHT22;8967;47.984;7.842;2023-09-19T14:05:57;22.00;84.80
17697;DHT22;8967;47.984;7.842;2023-09-19T14:08:27;22.00;84.60
17697;DHT22;8967;47.984;7.842;2023-09-19T14:10:56;21.90;83.70
17697;DHT22;8967;47.984;7.842;2023-09-19T14:13:26;21.90;83.90
17697;DHT22;8967;47.984;7.842;2023-09-19T14:15:54;21.90;84.20
17697;DHT22;8967;47.984;7.842;2023-09-19T14:18:21;21.90;84.40
17697;DHT22;8967;47.984;7.842;2023-09-19T14:20:51;21.90;84.60
17697;DHT22;8967;47.984;7.842;2023-09-19T14:23:18;21.90;84.40
17697;DHT22;8967;47.984;7.842;2023-09-19T14:25:45;21.90;84.00
17697;DHT22;8967;47.984;7.842;2023-09-19T14:28:13;21.90;83.80
17697;DHT22;8967;47.984;7.842;2023-09-19T14:34:30;21.90;83.50
17697;DHT22;8967;47.984;7.842;2023-09-19T14:36:57;21.90;83.00
17697;DHT22;8967;47.984;7.842;2023-09-19T14:39:24;21.90;83.00
17697;DHT22;8967;47.984;7.842;2023-09-19T14:41:51;21.90;82.90
17697;DHT22;8967;47.984;7.842;2023-09-19T14:48:08;21.80;81.90
17697;DHT22;8967;47.984;7.842;2023-09-19T14:50:39;21.80;81.80
17697;DHT22;8967;47.984;7.842;2023-09-19T14:53:06;21.80;81.90
17697;DHT22;8967;47.984;7.842;2023-09-19T14:55:37;21.80;82.10
17697;DHT22;8967;47.984;7.842;2023-09-19T14:58:10;21.80;82.20
17697;DHT22;8967;47.984;7.842;2023-09-19T15:28:40;21.70;81.10
17697;DHT22;8967;47.984;7.842;2023-09-19T15:35:07;21.70;81.20
17697;DHT22;8967;47.984;7.842;2023-09-19T15:38:04;21.70;80.90
17697;DHT22;8967;47.984;7.842;2023-09-19T15:40:33;21.70;80.50
17697;DHT22;8967;47.984;7.842;2023-09-19T15:47:21;21.60;80.40
17697;DHT22;8967;47.984;7.842;2023-09-19T15:49:51;21.60;80.50
17697;DHT22;8967;47.984;7.842;2023-09-19T15:52:20;21.60;80.60
17697;DHT22;8967;47.984;7.842;2023-09-19T15:54:56;21.60;80.70
17697;DHT22;8967;47.984;7.842;2023-09-19T15:57:25;21.60;81.10
17697;DHT22;8967;47.984;7.842;2023-09-19T15:59:54;21.60;81.10
17697;DHT22;8967;47.984;7.842;2023-09-19T16:02:22;21.60;81.40
17697;DHT22;8967;47.984;7.842;2023-09-19T16:04:51;21.60;81.60
17697;DHT22;8967;47.984;7.842;2023-09-19T16:07:18;21.50;81.80
17697;DHT22;8967;47.984;7.842;2023-09-19T16:09:45;21.50;82.30
17697;DHT22;8967;47.984;7.842;2023-09-19T16:12:12;21.50;82.70
17697;DHT22;8967;47.984;7.842;2023-09-19T16:14:42;21.50;82.80
17697;DHT22;8967;47.984;7.842;2023-09-19T16:17:10;21.50;82.90
17697;DHT22;8967;47.984;7.842;2023-09-19T16:19:43;21.50;82.80
17697;DHT22;8967;47.984;7.842;2023-09-19T16:22:10;21.50;82.80
17697;DHT22;8967;47.984;7.842;2023-09-19T16:24:37;21.50;83.10
17697;DHT22;8967;47.984;7.842;2023-09-19T16:27:05;21.50;83.20
17697;DHT22;8967;47.984;7.842;2023-09-19T16:29:32;21.50;83.30
17697;DHT22;8967;47.984;7.842;2023-09-19T16:31:59;21.50;83.60
17697;DHT22;8967;47.984;7.842;2023-09-19T16:34:29;21.40;83.70
17697;DHT22;8967;47.984;7.842;2023-09-19T16:37:01;21.40;84.10
17697;DHT22;8967;47.984;7.842;2023-09-19T16:39:29;21.40;84.30
17697;DHT22;8967;47.984;7.842;2023-09-19T16:41:56;21.40;84.30
17697;DHT22;8967;47.984;7.842;2023-09-19T16:44:23;21.40;84.40
17697;DHT22;8967;47.984;7.842;2023-09-19T16:46:50;21.30;84.60
17697;DHT22;8967;47.984;7.842;2023-09-19T16:49:19;21.30;85.00
17697;DHT22;8967;47.984;7.842;2023-09-19T16:51:47;21.30;85.20
17697;DHT22;8967;47.984;7.842;2023-09-19T16:54:15;21.30;85.40
17697;DHT22;8967;47.984;7.842;2023-09-19T16:56:44;21.30;85.60
17697;DHT22;8967;47.984;7.842;2023-09-19T16:59:14;21.20;85.70
17697;DHT22;8967;47.984;7.842;2023-09-19T17:01:41;21.20;86.00
17697;DHT22;8967;47.984;7.842;2023-09-19T17:04:09;21.20;86.20